sensor_id;sensor_type;location;lat;lon;timestamp;pressure;altitude;pressure_sealevel;temperature;humidity
6853;BME280;3465;42.144;24.722;2023-03-20T00:00:44;145008.31;;;8.36;95.27
6853;BME280;3465;42.144;24.722;2023-03-20T00:03:11;144985.81;;;8.27;95.45
6853;BME280;3465;42.144;24.722;2023-03-20T00:05:37;144958.25;;;8.16;95.05
6853;BME280;3465;42.144;24.722;2023-03-20T00:08:02;144953.28;;;8.14;94.86
6853;BME280;3465;42.144;24.722;2023-03-20T00:10:37;144928.28;;;8.04;95.82
6853;BME280;3465;42.144;24.722;2023-03-20T00:13:05;144910.75;;;7.97;96.59
6853;BME280;3465;42.144;24.722;2023-03-20T00:15:36;144924.53;;;8.02;96.42
6853;BME280;3465;42.144;24.722;2023-03-20T00:18:14;144907.03;;;7.95;96.81
6853;BME280;3465;42.144;24.722;2023-03-20T00:20:40;144905.81;;;7.95;96.87
6853;BME280;3465;42.144;24.722;2023-03-20T00:23:06;144909.56;;;7.96;96.67
6853;BME280;3465;42.144;24.722;2023-03-20T00:25:31;144915.78;;;7.99;96.00
6853;BME280;3465;42.144;24.722;2023-03-20T00:27:58;144923.25;;;8.02;95.99
6853;BME280;3465;42.144;24.722;2023-03-20T00:30:26;144917.03;;;7.99;95.62
6853;BME280;3465;42.144;24.722;2023-03-20T00:32:54;144910.75;;;7.97;95.10
6853;BME280;3465;42.144;24.722;2023-03-20T00:35:26;144860.81;;;7.77;95.50
6853;BME280;3465;42.144;24.722;2023-03-20T00:37:53;144888.28;;;7.88;95.53
6853;BME280;3465;42.144;24.722;2023-03-20T00:40:19;144880.81;;;7.85;95.28
6853;BME280;3465;42.144;24.722;2023-03-20T00:42:49;144858.28;;;7.76;95.52
6853;BME280;3465;42.144;24.722;2023-03-20T00:45:19;144847.06;;;7.71;96.19
6853;BME280;3465;42.144;24.722;2023-03-20T00:47:50;144842.06;;;7.69;96.11
6853;BME280;3465;42.144;24.722;2023-03-20T00:50:19;144837.09;;;7.67;95.88
6853;BME280;3465;42.144;24.722;2023-03-20T00:52:46;144843.31;;;7.70;95.84
6853;BME280;3465;42.144;24.722;2023-03-20T00:55:13;144828.34;;;7.64;96.38
6853;BME280;3465;42.144;24.722;2023-03-20T00:57:42;144825.84;;;7.63;96.30
6853;BME280;3465;42.144;24.722;2023-03-20T01:03:18;144824.59;;;7.62;96.33
6853;BME280;3465;42.144;24.722;2023-03-20T01:05:45;144818.31;;;7.60;96.98
6853;BME280;3465;42.144;24.722;2023-03-20T01:08:31;144805.88;;;7.55;97.28
6853;BME280;3465;42.144;24.722;2023-03-20T01:10:57;144779.63;;;7.44;96.89
6853;BME280;3465;42.144;24.722;2023-03-20T01:13:27;144799.59;;;7.52;96.66
6853;BME280;3465;42.144;24.722;2023-03-20T01:15:54;144792.13;;;7.49;96.82
6853;BME280;3465;42.144;24.722;2023-03-20T01:18:22;144772.13;;;7.41;97.51
6853;BME280;3465;42.144;24.722;2023-03-20T01:20:49;144744.66;;;7.30;98.38
6853;BME280;3465;42.144;24.722;2023-03-20T01:23:15;144724.69;;;7.22;99.04
6853;BME280;3465;42.144;24.722;2023-03-20T01:25:41;144705.97;;;7.14;99.77
6853;BME280;3465;42.144;24.722;2023-03-20T01:28:21;144700.97;;;7.12;100.00
6853;BME280;3465;42.144;24.722;2023-03-20T01:30:48;144683.47;;;7.05;100.00
6853;BME280;3465;42.144;24.722;2023-03-20T01:33:21;144699.72;;;7.12;100.00
6853;BME280;3465;42.144;24.722;2023-03-20T01:35:48;144688.47;;;7.07;99.94
6853;BME280;3465;42.144;24.722;2023-03-20T01:38:21;144663.50;;;6.97;100.00
6853;BME280;3465;42.144;24.722;2023-03-20T01:40:57;144661.03;;;6.96;100.00
6853;BME280;3465;42.144;24.722;2023-03-20T01:43:24;144631.03;;;6.84;100.00
6853;BME280;3465;42.144;24.722;2023-03-20T01:46:29;144632.31;;;6.85;100.00
6853;BME280;3465;42.144;24.722;2023-03-20T01:49:06;144599.84;;;6.72;100.00
6853;BME280;3465;42.144;24.722;2023-03-20T01:51:32;144601.13;;;6.72;100.00
6853;BME280;3465;42.144;24.722;2023-03-20T01:54:19;144568.66;;;6.59;100.00
6853;BME280;3465;42.144;24.722;2023-03-20T01:59:16;144563.66;;;6.57;100.00
6853;BME280;3465;42.144;24.722;2023-03-20T02:01:42;144533.75;;;6.45;100.00
6853;BME280;3465;42.144;24.722;2023-03-20T02:04:09;144528.75;;;6.43;100.00
6853;BME280;3465;42.144;24.722;2023-03-20T02:06:36;144496.28;;;6.30;100.00
6853;BME280;3465;42.144;24.722;2023-03-20T02:09:02;144481.34;;;6.24;100.00
6853;BME280;3465;42.144;24.722;2023-03-20T02:11:28;144496.28;;;6.30;100.00
6853;BME280;3465;42.144;24.722;2023-03-20T02:13:57;144485.06;;;6.26;100.00
6853;BME280;3465;42.144;24.722;2023-03-20T02:16:23;144488.81;;;6.27;100.00
6853;BME280;3465;42.144;24.722;2023-03-20T02:18:51;144458.84;;;6.15;100.00
6853;BME280;3465;42.144;24.722;2023-03-20T02:30:42;144432.69;;;6.05;100.00
6853;BME280;3465;42.144;24.722;2023-03-20T02:38:48;144401.50;;;5.92;100.00
6853;BME280;3465;42.144;24.722;2023-03-20T02:41:37;144396.53;;;5.90;100.00
6853;BME280;3465;42.144;24.722;2023-03-20T02:47:44;144361.56;;;5.76;100.00
6853;BME280;3465;42.144;24.722;2023-03-20T02:55:29;144276.78;;;5.42;100.00
6853;BME280;3465;42.144;24.722;2023-03-20T02:58:13;144286.78;;;5.46;100.00
6853;BME280;3465;42.144;24.722;2023-03-20T03:01:04;144274.31;;;5.41;100.00
6853;BME280;3465;42.144;24.722;2023-03-20T03:03:49;144256.84;;;5.34;100.00
6853;BME280;3465;42.144;24.722;2023-03-20T03:06:29;144271.78;;;5.40;100.00
6853;BME280;3465;42.144;24.722;2023-03-20T03:11:33;144248.09;;;5.30;100.00
6853;BME280;3465;42.144;24.722;2023-03-20T03:14:00;144260.56;;;5.35;100.00
6853;BME280;3465;42.144;24.722;2023-03-20T03:16:31;144194.53;;;5.09;100.00
6853;BME280;3465;42.144;24.722;2023-03-20T03:19:11;144228.16;;;5.22;100.00
6853;BME280;3465;42.144;24.722;2023-03-20T03:21:39;144236.91;;;5.26;100.00
6853;BME280;3465;42.144;24.722;2023-03-20T03:24:05;144245.63;;;5.29;100.00
6853;BME280;3465;42.144;24.722;2023-03-20T03:26:36;144249.38;;;5.31;100.00
6853;BME280;3465;42.144;24.722;2023-03-20T03:29:14;144240.63;;;5.27;100.00
6853;BME280;3465;42.144;24.722;2023-03-20T03:31:42;144216.97;;;5.18;100.00
6853;BME280;3465;42.144;24.722;2023-03-20T03:34:13;144197.03;;;5.10;100.00
6853;BME280;3465;42.144;24.722;2023-03-20T03:37:00;144173.34;;;5.00;100.00
6853;BME280;3465;42.144;24.722;2023-03-20T03:39:48;144153.41;;;4.92;100.00
6853;BME280;3465;42.144;24.722;2023-03-20T03:42:29;144138.47;;;4.86;100.00
6853;BME280;3465;42.144;24.722;2023-03-20T03:45:15;144113.53;;;4.76;100.00
6853;BME280;3465;42.144;24.722;2023-03-20T03:47:53;144154.69;;;4.93;100.00
6853;BME280;3465;42.144;24.722;2023-03-20T03:50:25;144109.81;;;4.75;100.00
6853;BME280;3465;42.144;24.722;2023-03-20T03:52:54;144138.47;;;4.86;100.00
6853;BME280;3465;42.144;24.722;2023-03-20T03:55:25;144137.22;;;4.86;100.00
6853;BME280;3465;42.144;24.722;2023-03-20T03:58:07;144111.06;;;4.75;100.00
6853;BME280;3465;42.144;24.722;2023-03-20T04:00:34;144118.53;;;4.78;100.00
6853;BME280;3465;42.144;24.722;2023-03-20T04:03:00;144081.16;;;4.63;100.00
6853;BME280;3465;42.144;24.722;2023-03-20T04:05:29;144116.03;;;4.77;100.00
6853;BME280;3465;42.144;24.722;2023-03-20T04:07:58;144099.81;;;4.71;100.00
6853;BME280;3465;42.144;24.722;2023-03-20T04:10:25;144092.34;;;4.68;100.00
6853;BME280;3465;42.144;24.722;2023-03-20T04:12:51;144081.16;;;4.63;100.00
6853;BME280;3465;42.144;24.722;2023-03-20T04:15:16;144072.44;;;4.60;100.00
6853;BME280;3465;42.144;24.722;2023-03-20T04:17:43;144052.50;;;4.52;100.00
6853;BME280;3465;42.144;24.722;2023-03-20T04:20:09;144023.84;;;4.40;100.00
6853;BME280;3465;42.144;24.722;2023-03-20T04:22:35;144032.56;;;4.43;100.00
6853;BME280;3465;42.144;24.722;2023-03-20T04:25:04;144022.63;;;4.39;100.00
6853;BME280;3465;42.144;24.722;2023-03-20T04:27:30;144015.19;;;4.36;100.00
6853;BME280;3465;42.144;24.722;2023-03-20T04:29:56;144001.44;;;4.31;100.00
6853;BME280;3465;42.144;24.722;2023-03-20T04:32:21;144035.09;;;4.45;100.00
6853;BME280;3465;42.144;24.722;2023-03-20T04:34:47;144076.16;;;4.61;100.00
6853;BME280;3465;42.144;24.722;2023-03-20T04:37:13;144013.91;;;4.36;100.00
6853;BME280;3465;42.144;24.722;2023-03-20T04:39:39;144015.19;;;4.36;100.00
6853;BME280;3465;42.144;24.722;2023-03-20T04:42:07;144030.09;;;4.43;100.00
6853;BME280;3465;42.144;24.722;2023-03-20T04:44:32;144027.63;;;4.42;100.00
6853;BME280;3465;42.144;24.722;2023-03-20T04:46:58;144016.38;;;4.37;100.00
6853;BME280;3465;42.144;24.722;2023-03-20T04:49:24;144015.19;;;4.36;100.00
6853;BME280;3465;42.144;24.722;2023-03-20T04:51:50;144011.44;;;4.35;100.00
6853;BME280;3465;42.144;24.722;2023-03-20T04:54:15;144027.63;;;4.42;100.00
6853;BME280;3465;42.144;24.722;2023-03-20T04:56:40;144052.50;;;4.52;100.00
6853;BME280;3465;42.144;24.722;2023-03-20T04:59:06;144104.81;;;4.73;100.00
6853;BME280;3465;42.144;24.722;2023-03-20T05:01:31;144244.38;;;5.29;100.00
6853;BME280;3465;42.144;24.722;2023-03-20T05:03:57;144314.19;;;5.57;100.00
6853;BME280;3465;42.144;24.722;2023-03-20T05:06:29;144525.00;;;6.42;100.00
6853;BME280;3465;42.144;24.722;2023-03-20T05:08:56;144666.03;;;6.98;99.27
6853;BME280;3465;42.144;24.722;2023-03-20T05:11:23;144849.59;;;7.72;92.79
6853;BME280;3465;42.144;24.722;2023-03-20T05:13:48;144984.56;;;8.26;90.32
6853;BME280;3465;42.144;24.722;2023-03-20T05:16:14;145080.81;;;8.65;87.72
6853;BME280;3465;42.144;24.722;2023-03-20T05:18:40;145168.31;;;9.00;83.98
6853;BME280;3465;42.144;24.722;2023-03-20T05:21:06;145317.19;;;9.60;82.07
6853;BME280;3465;42.144;24.722;2023-03-20T05:23:31;145463.66;;;10.19;78.03
6853;BME280;3465;42.144;24.722;2023-03-20T05:25:57;145631.44;;;10.86;73.88
6853;BME280;3465;42.144;24.722;2023-03-20T05:28:22;145726.69;;;11.24;70.66
6853;BME280;3465;42.144;24.722;2023-03-20T05:30:47;145838.28;;;11.69;68.49
6853;BME280;3465;42.144;24.722;2023-03-20T05:33:13;145946.09;;;12.12;66.01
6853;BME280;3465;42.144;24.722;2023-03-20T05:35:38;146082.81;;;12.66;63.71
6853;BME280;3465;42.144;24.722;2023-03-20T05:38:05;146230.91;;;13.26;60.62
6853;BME280;3465;42.144;24.722;2023-03-20T05:40:30;146312.53;;;13.58;59.65
6853;BME280;3465;42.144;24.722;2023-03-20T05:42:55;146444.41;;;14.11;57.67
6853;BME280;3465;42.144;24.722;2023-03-20T05:45:21;146563.78;;;14.59;55.70
6853;BME280;3465;42.144;24.722;2023-03-20T05:47:47;146679.41;;;15.05;54.22
6853;BME280;3465;42.144;24.722;2023-03-20T05:50:13;146756.09;;;15.35;52.95
6853;BME280;3465;42.144;24.722;2023-03-20T05:52:38;146741.03;;;15.29;52.84
6853;BME280;3465;42.144;24.722;2023-03-20T05:55:04;146642.94;;;14.90;52.87
6853;BME280;3465;42.144;24.722;2023-03-20T05:57:30;146812.75;;;15.58;51.82
6853;BME280;3465;42.144;24.722;2023-03-20T05:59:55;147000.22;;;16.33;49.69
6853;BME280;3465;42.144;24.722;2023-03-20T06:02:21;147137.47;;;16.87;48.27
6853;BME280;3465;42.144;24.722;2023-03-20T06:04:46;147267.16;;;17.39;46.75
6853;BME280;3465;42.144;24.722;2023-03-20T06:07:12;147123.63;;;16.82;47.61
6853;BME280;3465;42.144;24.722;2023-03-20T06:09:37;147117.34;;;16.79;47.23
6853;BME280;3465;42.144;24.722;2023-03-20T06:12:03;147174.00;;;17.02;46.81
6853;BME280;3465;42.144;24.722;2023-03-20T06:14:28;147302.50;;;17.53;45.78
6853;BME280;3465;42.144;24.722;2023-03-20T06:16:54;147423.47;;;18.01;45.14
6853;BME280;3465;42.144;24.722;2023-03-20T06:19:21;147547.00;;;18.50;44.23
6853;BME280;3465;42.144;24.722;2023-03-20T06:21:48;147607.53;;;18.75;43.01
6853;BME280;3465;42.144;24.722;2023-03-20T06:24:14;147655.44;;;18.94;42.77
6853;BME280;3465;42.144;24.722;2023-03-20T06:26:39;147557.13;;;18.55;42.83
6853;BME280;3465;42.144;24.722;2023-03-20T06:29:05;147545.75;;;18.50;43.40
6853;BME280;3465;42.144;24.722;2023-03-20T06:31:30;147583.59;;;18.65;42.74
6853;BME280;3465;42.144;24.722;2023-03-20T06:33:56;147607.53;;;18.75;42.61
6853;BME280;3465;42.144;24.722;2023-03-20T06:36:22;147628.97;;;18.83;43.15
6853;BME280;3465;42.144;24.722;2023-03-20T06:38:48;147772.81;;;19.40;41.71
6853;BME280;3465;42.144;24.722;2023-03-20T06:41:13;147876.25;;;19.81;40.43
6853;BME280;3465;42.144;24.722;2023-03-20T06:43:38;147934.34;;;20.05;39.91
6853;BME280;3465;42.144;24.722;2023-03-20T06:46:05;147916.66;;;19.98;39.71
6853;BME280;3465;42.144;24.722;2023-03-20T06:48:31;147887.66;;;19.86;39.75
6853;BME280;3465;42.144;24.722;2023-03-20T06:50:56;148064.44;;;20.56;39.47
6853;BME280;3465;42.144;24.722;2023-03-20T06:53:22;148281.75;;;21.43;38.21
6853;BME280;3465;42.144;24.722;2023-03-20T06:55:49;148491.59;;;22.26;36.35
6853;BME280;3465;42.144;24.722;2023-03-20T06:58:15;148683.94;;;23.02;35.21
6853;BME280;3465;42.144;24.722;2023-03-20T07:00:41;148558.72;;;22.52;35.41
6853;BME280;3465;42.144;24.722;2023-03-20T07:03:06;148525.78;;;22.39;35.73
6853;BME280;3465;42.144;24.722;2023-03-20T07:05:33;148396.81;;;21.88;36.11
6853;BME280;3465;42.144;24.722;2023-03-20T07:07:59;148291.88;;;21.47;36.89
6853;BME280;3465;42.144;24.722;2023-03-20T07:10:25;148270.38;;;21.38;37.02
6853;BME280;3465;42.144;24.722;2023-03-20T07:12:50;148449.91;;;22.09;36.47
6853;BME280;3465;42.144;24.722;2023-03-20T07:15:17;148509.34;;;22.33;36.19
6853;BME280;3465;42.144;24.722;2023-03-20T07:17:42;148680.13;;;23.01;34.95
6853;BME280;3465;42.144;24.722;2023-03-20T07:20:08;148449.91;;;22.09;35.80
6853;BME280;3465;42.144;24.722;2023-03-20T07:22:35;148565.00;;;22.55;35.66
6853;BME280;3465;42.144;24.722;2023-03-20T07:25:00;148735.81;;;23.23;34.56
6853;BME280;3465;42.144;24.722;2023-03-20T07:27:26;148821.91;;;23.57;33.40
6853;BME280;3465;42.144;24.722;2023-03-20T07:29:52;148767.47;;;23.35;33.85
6853;BME280;3465;42.144;24.722;2023-03-20T07:32:17;148923.22;;;23.97;33.17
6853;BME280;3465;42.144;24.722;2023-03-20T07:34:43;149061.28;;;24.52;32.15
6853;BME280;3465;42.144;24.722;2023-03-20T07:37:08;149152.50;;;24.88;31.45
6853;BME280;3465;42.144;24.722;2023-03-20T07:39:34;149053.66;;;24.49;31.96
6853;BME280;3465;42.144;24.722;2023-03-20T07:42:00;149013.16;;;24.33;32.22
6853;BME280;3465;42.144;24.722;2023-03-20T07:44:25;148959.94;;;24.12;32.57
6853;BME280;3465;42.144;24.722;2023-03-20T07:46:51;148923.22;;;23.97;32.39
6853;BME280;3465;42.144;24.722;2023-03-20T07:49:16;148895.34;;;23.86;32.95
6853;BME280;3465;42.144;24.722;2023-03-20T07:51:43;148901.66;;;23.88;33.02
6853;BME280;3465;42.144;24.722;2023-03-20T07:54:09;148943.50;;;24.05;32.83
6853;BME280;3465;42.144;24.722;2023-03-20T07:56:34;148758.59;;;23.32;33.21
6853;BME280;3465;42.144;24.722;2023-03-20T07:59:00;148672.56;;;22.98;34.44
6853;BME280;3465;42.144;24.722;2023-03-20T08:01:25;148757.38;;;23.31;33.85
6853;BME280;3465;42.144;24.722;2023-03-20T08:03:50;148821.91;;;23.57;33.54
6853;BME280;3465;42.144;24.722;2023-03-20T08:06:16;148890.25;;;23.84;32.57
6853;BME280;3465;42.144;24.722;2023-03-20T08:08:41;148764.97;;;23.34;33.36
6853;BME280;3465;42.144;24.722;2023-03-20T08:11:07;148761.16;;;23.33;33.84
6853;BME280;3465;42.144;24.722;2023-03-20T08:13:32;148645.97;;;22.87;34.01
6853;BME280;3465;42.144;24.722;2023-03-20T08:15:58;148900.38;;;23.88;33.26
6853;BME280;3465;42.144;24.722;2023-03-20T08:18:23;148743.44;;;23.26;33.88
6853;BME280;3465;42.144;24.722;2023-03-20T08:20:49;148852.28;;;23.69;33.26
6853;BME280;3465;42.144;24.722;2023-03-20T08:23:16;148702.91;;;23.10;33.98
6853;BME280;3465;42.144;24.722;2023-03-20T08:25:46;148301.94;;;21.51;35.55
6853;BME280;3465;42.144;24.722;2023-03-20T08:28:12;148315.88;;;21.56;36.41
6853;BME280;3465;42.144;24.722;2023-03-20T08:30:37;148666.19;;;22.95;34.53
6853;BME280;3465;42.144;24.722;2023-03-20T08:33:03;149011.88;;;24.32;32.10
6853;BME280;3465;42.144;24.722;2023-03-20T08:35:28;149072.66;;;24.56;31.39
6853;BME280;3465;42.144;24.722;2023-03-20T08:37:53;149309.66;;;25.50;30.29
6853;BME280;3465;42.144;24.722;2023-03-20T08:40:19;149468.19;;;26.13;29.22
6853;BME280;3465;42.144;24.722;2023-03-20T08:42:44;149446.66;;;26.04;29.49
6853;BME280;3465;42.144;24.722;2023-03-20T08:45:11;149392.09;;;25.83;29.57
6853;BME280;3465;42.144;24.722;2023-03-20T08:47:36;149416.16;;;25.92;30.07
6853;BME280;3465;42.144;24.722;2023-03-20T08:50:02;149291.94;;;25.43;30.12
6853;BME280;3465;42.144;24.722;2023-03-20T08:52:27;148959.94;;;24.12;31.84
6853;BME280;3465;42.144;24.722;2023-03-20T08:54:53;148952.38;;;24.09;31.98
6853;BME280;3465;42.144;24.722;2023-03-20T08:57:18;148927.03;;;23.98;31.95
6853;BME280;3465;42.144;24.722;2023-03-20T08:59:43;148597.91;;;22.68;34.00
6853;BME280;3465;42.144;24.722;2023-03-20T09:02:12;148894.06;;;23.85;33.37
6853;BME280;3465;42.144;24.722;2023-03-20T09:04:37;149174.06;;;24.96;31.76
6853;BME280;3465;42.144;24.722;2023-03-20T09:07:03;149204.44;;;25.08;30.43
6853;BME280;3465;42.144;24.722;2023-03-20T09:09:28;148934.63;;;24.02;31.82
6853;BME280;3465;42.144;24.722;2023-03-20T09:11:55;148754.81;;;23.30;32.97
6853;BME280;3465;42.144;24.722;2023-03-20T09:14:23;148597.91;;;22.68;34.03
6853;BME280;3465;42.144;24.722;2023-03-20T09:16:49;148253.94;;;21.32;36.29
6853;BME280;3465;42.144;24.722;2023-03-20T09:19:15;148171.81;;;20.99;37.06
6853;BME280;3465;42.144;24.722;2023-03-20T09:21:41;148099.78;;;20.70;37.55
6853;BME280;3465;42.144;24.722;2023-03-20T09:24:06;148485.31;;;22.23;36.02
6853;BME280;3465;42.144;24.722;2023-03-20T09:26:31;148887.69;;;23.83;33.51
6853;BME280;3465;42.144;24.722;2023-03-20T09:28:57;148778.84;;;23.40;33.55
6853;BME280;3465;42.144;24.722;2023-03-20T09:31:22;148921.91;;;23.96;32.83
6853;BME280;3465;42.144;24.722;2023-03-20T09:33:48;149013.16;;;24.33;32.37
6853;BME280;3465;42.144;24.722;2023-03-20T09:36:13;149195.59;;;25.05;31.75
6853;BME280;3465;42.144;24.722;2023-03-20T09:38:40;149214.59;;;25.12;30.82
6853;BME280;3465;42.144;24.722;2023-03-20T09:41:20;148638.38;;;22.84;33.13
6853;BME280;3465;42.144;24.722;2023-03-20T09:49:35;148558.72;;;22.52;34.55
6853;BME280;3465;42.144;24.722;2023-03-20T09:54:57;148460.00;;;22.13;35.05
6853;BME280;3465;42.144;24.722;2023-03-20T09:57:52;148767.47;;;23.35;33.72
6853;BME280;3465;42.144;24.722;2023-03-20T10:00:20;149077.75;;;24.58;32.29
6853;BME280;3465;42.144;24.722;2023-03-20T10:02:59;149357.88;;;25.69;31.38
6853;BME280;3465;42.144;24.722;2023-03-20T10:05:26;149496.09;;;26.24;30.29
6853;BME280;3465;42.144;24.722;2023-03-20T10:07:57;149096.72;;;24.66;31.48
6853;BME280;3465;42.144;24.722;2023-03-20T10:10:34;149274.19;;;25.36;30.52
6853;BME280;3465;42.144;24.722;2023-03-20T10:13:06;148976.41;;;24.18;32.10
6853;BME280;3465;42.144;24.722;2023-03-20T10:15:46;148529.56;;;22.41;34.19
6853;BME280;3465;42.144;24.722;2023-03-20T10:18:24;148745.94;;;23.27;34.03
6853;BME280;3465;42.144;24.722;2023-03-20T10:21:09;148899.13;;;23.87;33.80
6853;BME280;3465;42.144;24.722;2023-03-20T10:24:04;148958.66;;;24.11;33.50
6853;BME280;3465;42.144;24.722;2023-03-20T10:26:33;148790.28;;;23.44;33.62
6853;BME280;3465;42.144;24.722;2023-03-20T10:29:04;148681.38;;;23.01;34.29
6853;BME280;3465;42.144;24.722;2023-03-20T10:31:42;148721.84;;;23.17;34.60
6853;BME280;3465;42.144;24.722;2023-03-20T10:42:36;148427.13;;;22.00;35.99
6853;BME280;3465;42.144;24.722;2023-03-20T10:47:59;148590.31;;;22.65;36.25
6853;BME280;3465;42.144;24.722;2023-03-20T10:50:39;148777.63;;;23.39;34.34
6853;BME280;3465;42.144;24.722;2023-03-20T10:53:07;148924.47;;;23.97;33.54
6853;BME280;3465;42.144;24.722;2023-03-20T10:55:38;148771.28;;;23.37;33.93
6853;BME280;3465;42.144;24.722;2023-03-20T10:58:25;148866.22;;;23.74;33.90
6853;BME280;3465;42.144;24.722;2023-03-20T11:00:54;148980.22;;;24.20;33.62
6853;BME280;3465;42.144;24.722;2023-03-20T11:03:25;148956.16;;;24.10;32.92
6853;BME280;3465;42.144;24.722;2023-03-20T11:06:02;148568.81;;;22.56;34.49
6853;BME280;3465;42.144;24.722;2023-03-20T11:08:34;148525.78;;;22.39;35.67
6853;BME280;3465;42.144;24.722;2023-03-20T11:11:02;148700.38;;;23.09;35.18
6853;BME280;3465;42.144;24.722;2023-03-20T11:15:53;148651.03;;;22.89;34.86
6853;BME280;3465;42.144;24.722;2023-03-20T11:18:23;148585.25;;;22.63;34.99
6853;BME280;3465;42.144;24.722;2023-03-20T11:20:56;148668.75;;;22.96;34.53
6853;BME280;3465;42.144;24.722;2023-03-20T11:23:27;148744.72;;;23.26;34.30
6853;BME280;3465;42.144;24.722;2023-03-20T11:28:34;148668.75;;;22.96;34.14
6853;BME280;3465;42.144;24.722;2023-03-20T11:31:16;148771.28;;;23.37;34.68
6853;BME280;3465;42.144;24.722;2023-03-20T11:33:59;148791.50;;;23.45;33.32
6853;BME280;3465;42.144;24.722;2023-03-20T11:36:31;148739.59;;;23.24;34.45
6853;BME280;3465;42.144;24.722;2023-03-20T11:39:23;148885.19;;;23.82;34.55
6853;BME280;3465;42.144;24.722;2023-03-20T11:41:54;148844.69;;;23.66;33.76
6853;BME280;3465;42.144;24.722;2023-03-20T11:47:05;148795.31;;;23.46;33.39
6853;BME280;3465;42.144;24.722;2023-03-20T11:49:59;148797.88;;;23.47;33.71
6853;BME280;3465;42.144;24.722;2023-03-20T11:52:39;148751.03;;;23.29;34.28
6853;BME280;3465;42.144;24.722;2023-03-20T11:55:21;148853.56;;;23.69;33.32
6853;BME280;3465;42.144;24.722;2023-03-20T11:57:48;148871.28;;;23.76;33.35
6853;BME280;3465;42.144;24.722;2023-03-20T12:00:20;148819.34;;;23.56;32.66
6853;BME280;3465;42.144;24.722;2023-03-20T12:02:47;148807.97;;;23.51;32.54
6853;BME280;3465;42.144;24.722;2023-03-20T12:08:21;148888.97;;;23.83;32.36
6853;BME280;3465;42.144;24.722;2023-03-20T12:10:54;148847.19;;;23.67;32.55
6853;BME280;3465;42.144;24.722;2023-03-20T12:13:26;148710.47;;;23.13;33.46
6853;BME280;3465;42.144;24.722;2023-03-20T12:16:00;148710.47;;;23.13;33.46
6853;BME280;3465;42.144;24.722;2023-03-20T12:18:43;148639.66;;;22.85;33.93
6853;BME280;3465;42.144;24.722;2023-03-20T12:21:14;148715.56;;;23.15;33.51
6853;BME280;3465;42.144;24.722;2023-03-20T12:23:50;148751.03;;;23.29;33.09
6853;BME280;3465;42.144;24.722;2023-03-20T12:26:23;148773.81;;;23.38;32.82
6853;BME280;3465;42.144;24.722;2023-03-20T12:29:26;148810.53;;;23.52;32.58
6853;BME280;3465;42.144;24.722;2023-03-20T12:34:58;148877.59;;;23.79;31.20
6853;BME280;3465;42.144;24.722;2023-03-20T12:37:26;148867.44;;;23.75;31.08
6853;BME280;3465;42.144;24.722;2023-03-20T12:39:58;149014.38;;;24.33;30.19
6853;BME280;3465;42.144;24.722;2023-03-20T12:42:34;149037.22;;;24.42;31.24
6853;BME280;3465;42.144;24.722;2023-03-20T12:45:12;148823.16;;;23.57;31.99
6853;BME280;3465;42.144;24.722;2023-03-20T12:50:30;148634.59;;;22.83;33.22
6853;BME280;3465;42.144;24.722;2023-03-20T13:01:39;148663.69;;;22.94;32.54
6853;BME280;3465;42.144;24.722;2023-03-20T13:06:51;148770.03;;;23.36;31.25
6853;BME280;3465;42.144;24.722;2023-03-20T13:22:51;148751.03;;;23.29;33.59
6853;BME280;3465;42.144;24.722;2023-03-20T13:28:06;148828.22;;;23.59;32.39
6853;BME280;3465;42.144;24.722;2023-03-20T13:30:43;148775.06;;;23.38;32.38
6853;BME280;3465;42.144;24.722;2023-03-20T13:33:33;148682.66;;;23.02;32.17
6853;BME280;3465;42.144;24.722;2023-03-20T13:36:24;148723.13;;;23.18;32.48
6853;BME280;3465;42.144;24.722;2023-03-20T13:39:30;148691.50;;;23.05;32.89
6853;BME280;3465;42.144;24.722;2023-03-20T13:41:59;148681.38;;;23.01;32.25
6853;BME280;3465;42.144;24.722;2023-03-20T13:44:28;148724.41;;;23.18;32.11
6853;BME280;3465;42.144;24.722;2023-03-20T13:46:59;148695.31;;;23.07;31.27
6853;BME280;3465;42.144;24.722;2023-03-20T13:49:45;148711.75;;;23.13;32.02
6853;BME280;3465;42.144;24.722;2023-03-20T13:52:21;148772.56;;;23.37;31.27
6853;BME280;3465;42.144;24.722;2023-03-20T13:55:00;148733.28;;;23.22;31.93
6853;BME280;3465;42.144;24.722;2023-03-20T14:05:40;148528.28;;;22.40;32.06
6853;BME280;3465;42.144;24.722;2023-03-20T14:08:22;148571.34;;;22.57;32.22
6853;BME280;3465;42.144;24.722;2023-03-20T14:10:54;148563.72;;;22.54;33.12
6853;BME280;3465;42.144;24.722;2023-03-20T14:13:21;148534.63;;;22.43;32.70
6853;BME280;3465;42.144;24.722;2023-03-20T14:15:53;148484.03;;;22.23;31.97
6853;BME280;3465;42.144;24.722;2023-03-20T14:18:22;148367.72;;;21.77;33.18
6853;BME280;3465;42.144;24.722;2023-03-20T14:20:54;148432.19;;;22.02;33.18
6853;BME280;3465;42.144;24.722;2023-03-20T14:23:30;148506.81;;;22.32;33.16
6853;BME280;3465;42.144;24.722;2023-03-20T14:25:57;148401.84;;;21.90;31.96
6853;BME280;3465;42.144;24.722;2023-03-20T14:28:28;148437.28;;;22.04;32.71
6853;BME280;3465;42.144;24.722;2023-03-20T14:31:31;148500.47;;;22.29;33.76
6853;BME280;3465;42.144;24.722;2023-03-20T14:34:11;148436.00;;;22.04;35.74
6853;BME280;3465;42.144;24.722;2023-03-20T14:37:00;148451.16;;;22.10;36.44
6853;BME280;3465;42.144;24.722;2023-03-20T14:39:53;148511.84;;;22.34;36.43
6853;BME280;3465;42.144;24.722;2023-03-20T14:42:34;148475.16;;;22.19;36.23
6853;BME280;3465;42.144;24.722;2023-03-20T14:53:38;148384.16;;;21.83;36.25
6853;BME280;3465;42.144;24.722;2023-03-20T14:56:09;148307.03;;;21.53;36.12
6853;BME280;3465;42.144;24.722;2023-03-20T15:06:21;148280.47;;;21.42;34.87
6853;BME280;3465;42.144;24.722;2023-03-20T15:09:00;148276.66;;;21.41;35.41
6853;BME280;3465;42.144;24.722;2023-03-20T15:11:28;148238.78;;;21.25;36.13
6853;BME280;3465;42.144;24.722;2023-03-20T15:13:57;148171.81;;;20.99;36.34
6853;BME280;3465;42.144;24.722;2023-03-20T15:16:34;148104.84;;;20.72;36.67
6853;BME280;3465;42.144;24.722;2023-03-20T15:19:00;148214.78;;;21.16;36.33